sensor_id;sensor_type;location;lat;lon;timestamp;temperature;humidity
19037;DHT22;9651;49.138;8.900;2023-04-01T00:00:31;9.80;99.90
19037;DHT22;9651;49.138;8.900;2023-04-01T00:04:34;9.80;99.90
19037;DHT22;9651;49.138;8.900;2023-04-01T00:08:36;9.80;99.90
19037;DHT22;9651;49.138;8.900;2023-04-01T00:12:38;9.80;99.90
19037;DHT22;9651;49.138;8.900;2023-04-01T00:16:40;9.80;99.90
19037;DHT22;9651;49.138;8.900;2023-04-01T00:20:45;9.90;99.90
19037;DHT22;9651;49.138;8.900;2023-04-01T00:24:47;9.80;99.90
19037;DHT22;9651;49.138;8.900;2023-04-01T00:28:49;9.80;99.90
19037;DHT22;9651;49.138;8.900;2023-04-01T00:32:52;9.90;99.90
19037;DHT22;9651;49.138;8.900;2023-04-01T00:36:55;9.80;99.90
19037;DHT22;9651;49.138;8.900;2023-04-01T00:40:58;9.80;99.90
19037;DHT22;9651;49.138;8.900;2023-04-01T00:45:25;9.90;99.90
19037;DHT22;9651;49.138;8.900;2023-04-01T00:49:30;9.80;99.90
19037;DHT22;9651;49.138;8.900;2023-04-01T00:53:37;9.80;99.90
19037;DHT22;9651;49.138;8.900;2023-04-01T00:57:42;9.80;99.90
19037;DHT22;9651;49.138;8.900;2023-04-01T01:01:45;9.80;99.90
19037;DHT22;9651;49.138;8.900;2023-04-01T01:06:08;9.80;99.90
19037;DHT22;9651;49.138;8.900;2023-04-01T01:10:17;9.90;99.90
19037;DHT22;9651;49.138;8.900;2023-04-01T01:14:29;9.80;99.90
19037;DHT22;9651;49.138;8.900;2023-04-01T01:18:38;9.90;99.90
19037;DHT22;9651;49.138;8.900;2023-04-01T01:22:55;9.90;99.90
19037;DHT22;9651;49.138;8.900;2023-04-01T01:27:03;9.90;99.90
19037;DHT22;9651;49.138;8.900;2023-04-01T01:31:14;9.80;99.90
19037;DHT22;9651;49.138;8.900;2023-04-01T01:35:22;9.80;99.90
19037;DHT22;9651;49.138;8.900;2023-04-01T01:39:27;9.90;99.90
19037;DHT22;9651;49.138;8.900;2023-04-01T01:43:35;9.90;99.90
19037;DHT22;9651;49.138;8.900;2023-04-01T01:47:40;10.00;99.90
19037;DHT22;9651;49.138;8.900;2023-04-01T01:51:44;10.00;99.90
19037;DHT22;9651;49.138;8.900;2023-04-01T01:55:48;10.10;99.90
19037;DHT22;9651;49.138;8.900;2023-04-01T01:59:54;10.10;99.90
19037;DHT22;9651;49.138;8.900;2023-04-01T02:04:00;10.00;99.90
19037;DHT22;9651;49.138;8.900;2023-04-01T02:08:07;9.90;99.90
19037;DHT22;9651;49.138;8.900;2023-04-01T02:12:13;9.90;99.90
19037;DHT22;9651;49.138;8.900;2023-04-01T02:16:29;9.90;99.90
19037;DHT22;9651;49.138;8.900;2023-04-01T02:20:34;9.90;99.90
19037;DHT22;9651;49.138;8.900;2023-04-01T02:24:39;9.90;99.90
19037;DHT22;9651;49.138;8.900;2023-04-01T02:28:43;9.90;99.90
19037;DHT22;9651;49.138;8.900;2023-04-01T02:32:48;9.90;99.90
19037;DHT22;9651;49.138;8.900;2023-04-01T02:36:51;10.00;99.90
19037;DHT22;9651;49.138;8.900;2023-04-01T02:40:58;9.90;99.90
19037;DHT22;9651;49.138;8.900;2023-04-01T02:45:01;9.90;99.90
19037;DHT22;9651;49.138;8.900;2023-04-01T02:49:03;9.90;99.90
19037;DHT22;9651;49.138;8.900;2023-04-01T02:53:05;9.90;99.90
19037;DHT22;9651;49.138;8.900;2023-04-01T02:57:08;9.80;99.90
19037;DHT22;9651;49.138;8.900;2023-04-01T03:01:10;9.80;99.90
19037;DHT22;9651;49.138;8.900;2023-04-01T03:05:12;9.80;99.90
19037;DHT22;9651;49.138;8.900;2023-04-01T03:09:14;9.80;99.90
19037;DHT22;9651;49.138;8.900;2023-04-01T03:13:17;9.80;99.90
19037;DHT22;9651;49.138;8.900;2023-04-01T03:17:19;9.80;99.90
19037;DHT22;9651;49.138;8.900;2023-04-01T03:21:23;9.80;99.90
19037;DHT22;9651;49.138;8.900;2023-04-01T03:25:25;9.80;99.90
19037;DHT22;9651;49.138;8.900;2023-04-01T03:29:28;9.80;99.90
19037;DHT22;9651;49.138;8.900;2023-04-01T03:33:31;9.80;99.90
19037;DHT22;9651;49.138;8.900;2023-04-01T03:37:33;9.80;99.90
19037;DHT22;9651;49.138;8.900;2023-04-01T03:41:36;9.80;99.90
19037;DHT22;9651;49.138;8.900;2023-04-01T03:45:45;9.80;99.90
19037;DHT22;9651;49.138;8.900;2023-04-01T03:49:47;9.80;99.90
19037;DHT22;9651;49.138;8.900;2023-04-01T03:53:49;9.90;99.90
19037;DHT22;9651;49.138;8.900;2023-04-01T03:57:51;9.90;99.90
19037;DHT22;9651;49.138;8.900;2023-04-01T04:01:54;9.90;99.90
19037;DHT22;9651;49.138;8.900;2023-04-01T04:05:57;9.90;99.90
19037;DHT22;9651;49.138;8.900;2023-04-01T04:09:59;9.90;99.90
19037;DHT22;9651;49.138;8.900;2023-04-01T04:14:01;9.90;99.90
19037;DHT22;9651;49.138;8.900;2023-04-01T04:18:04;9.90;99.90
19037;DHT22;9651;49.138;8.900;2023-04-01T04:22:06;10.00;99.90
19037;DHT22;9651;49.138;8.900;2023-04-01T04:26:10;9.90;99.90
19037;DHT22;9651;49.138;8.900;2023-04-01T04:30:13;9.90;99.90
19037;DHT22;9651;49.138;8.900;2023-04-01T04:34:16;9.90;99.90
19037;DHT22;9651;49.138;8.900;2023-04-01T04:38:19;9.90;99.90
19037;DHT22;9651;49.138;8.900;2023-04-01T04:42:21;10.00;99.90
19037;DHT22;9651;49.138;8.900;2023-04-01T04:46:26;10.00;99.90
19037;DHT22;9651;49.138;8.900;2023-04-01T04:50:36;10.00;99.90
19037;DHT22;9651;49.138;8.900;2023-04-01T04:54:38;10.00;99.90
19037;DHT22;9651;49.138;8.900;2023-04-01T04:58:40;10.00;99.90
19037;DHT22;9651;49.138;8.900;2023-04-01T05:02:48;10.00;99.90
19037;DHT22;9651;49.138;8.900;2023-04-01T05:06:53;10.10;99.90
19037;DHT22;9651;49.138;8.900;2023-04-01T05:10:55;10.10;99.90
19037;DHT22;9651;49.138;8.900;2023-04-01T05:14:57;10.10;99.90
19037;DHT22;9651;49.138;8.900;2023-04-01T05:18:59;10.00;99.90
19037;DHT22;9651;49.138;8.900;2023-04-01T05:23:03;10.00;99.90
19037;DHT22;9651;49.138;8.900;2023-04-01T05:27:05;10.00;99.90
19037;DHT22;9651;49.138;8.900;2023-04-01T05:31:09;10.00;99.90
19037;DHT22;9651;49.138;8.900;2023-04-01T05:35:17;10.00;99.90
19037;DHT22;9651;49.138;8.900;2023-04-01T05:39:21;10.00;99.90
19037;DHT22;9651;49.138;8.900;2023-04-01T05:43:24;10.10;99.90
19037;DHT22;9651;49.138;8.900;2023-04-01T05:47:28;10.20;99.90
19037;DHT22;9651;49.138;8.900;2023-04-01T05:51:29;10.20;99.90
19037;DHT22;9651;49.138;8.900;2023-04-01T05:55:34;10.30;99.90
19037;DHT22;9651;49.138;8.900;2023-04-01T05:59:36;10.30;99.90
19037;DHT22;9651;49.138;8.900;2023-04-01T06:03:39;10.40;99.90
19037;DHT22;9651;49.138;8.900;2023-04-01T06:07:40;10.40;99.90
19037;DHT22;9651;49.138;8.900;2023-04-01T06:11:55;10.40;99.90
19037;DHT22;9651;49.138;8.900;2023-04-01T06:16:05;10.50;99.90
19037;DHT22;9651;49.138;8.900;2023-04-01T06:20:15;10.50;99.90
19037;DHT22;9651;49.138;8.900;2023-04-01T06:29:25;10.50;99.90
19037;DHT22;9651;49.138;8.900;2023-04-01T06:33:46;10.50;99.90
19037;DHT22;9651;49.138;8.900;2023-04-01T06:38:13;10.40;99.90
19037;DHT22;9651;49.138;8.900;2023-04-01T06:42:45;10.20;99.90
19037;DHT22;9651;49.138;8.900;2023-04-01T06:47:24;10.30;99.90
19037;DHT22;9651;49.138;8.900;2023-04-01T06:52:08;10.40;99.90
19037;DHT22;9651;49.138;8.900;2023-04-01T06:56:43;10.50;99.90
19037;DHT22;9651;49.138;8.900;2023-04-01T07:00:58;10.50;99.90
19037;DHT22;9651;49.138;8.900;2023-04-01T07:05:05;10.50;99.90
19037;DHT22;9651;49.138;8.900;2023-04-01T07:09:12;10.60;99.90
19037;DHT22;9651;49.138;8.900;2023-04-01T07:13:55;10.50;99.90
19037;DHT22;9651;49.138;8.900;2023-04-01T07:18:03;10.40;99.90
19037;DHT22;9651;49.138;8.900;2023-04-01T07:22:18;10.30;99.90
19037;DHT22;9651;49.138;8.900;2023-04-01T07:26:38;10.50;99.90
19037;DHT22;9651;49.138;8.900;2023-04-01T07:30:57;10.50;99.90
19037;DHT22;9651;49.138;8.900;2023-04-01T07:35:09;10.50;99.90
19037;DHT22;9651;49.138;8.900;2023-04-01T07:39:28;10.30;99.90
19037;DHT22;9651;49.138;8.900;2023-04-01T07:44:00;10.30;99.90
19037;DHT22;9651;49.138;8.900;2023-04-01T07:48:13;10.30;99.90
19037;DHT22;9651;49.138;8.900;2023-04-01T07:52:24;10.30;99.90
19037;DHT22;9651;49.138;8.900;2023-04-01T07:56:41;10.30;99.90
19037;DHT22;9651;49.138;8.900;2023-04-01T08:00:53;10.50;99.90
19037;DHT22;9651;49.138;8.900;2023-04-01T08:05:16;10.60;99.90
19037;DHT22;9651;49.138;8.900;2023-04-01T08:09:28;10.50;99.90
19037;DHT22;9651;49.138;8.900;2023-04-01T08:14:06;10.50;99.90
19037;DHT22;9651;49.138;8.900;2023-04-01T08:18:49;10.50;99.90
19037;DHT22;9651;49.138;8.900;2023-04-01T08:22:58;10.40;99.90
19037;DHT22;9651;49.138;8.900;2023-04-01T08:27:14;10.20;99.90
19037;DHT22;9651;49.138;8.900;2023-04-01T08:31:24;10.20;99.90
19037;DHT22;9651;49.138;8.900;2023-04-01T08:35:30;10.20;99.90
19037;DHT22;9651;49.138;8.900;2023-04-01T08:39:39;10.50;99.90
19037;DHT22;9651;49.138;8.900;2023-04-01T08:44:05;10.60;99.90
19037;DHT22;9651;49.138;8.900;2023-04-01T08:53:08;10.50;99.90
19037;DHT22;9651;49.138;8.900;2023-04-01T08:57:22;10.50;99.90
19037;DHT22;9651;49.138;8.900;2023-04-01T09:06:50;10.60;99.90
19037;DHT22;9651;49.138;8.900;2023-04-01T09:15:42;11.10;99.90
19037;DHT22;9651;49.138;8.900;2023-04-01T09:20:17;11.20;99.90
19037;DHT22;9651;49.138;8.900;2023-04-01T09:24:51;11.20;99.90
19037;DHT22;9651;49.138;8.900;2023-04-01T09:29:02;11.40;99.90
19037;DHT22;9651;49.138;8.900;2023-04-01T09:33:23;11.40;99.90
19037;DHT22;9651;49.138;8.900;2023-04-01T09:37:35;11.40;99.90
19037;DHT22;9651;49.138;8.900;2023-04-01T09:41:57;11.70;99.90
19037;DHT22;9651;49.138;8.900;2023-04-01T09:46:23;11.80;99.90
19037;DHT22;9651;49.138;8.900;2023-04-01T09:50:35;11.90;99.90
19037;DHT22;9651;49.138;8.900;2023-04-01T09:54:53;11.90;99.90
19037;DHT22;9651;49.138;8.900;2023-04-01T09:59:28;12.00;99.90
19037;DHT22;9651;49.138;8.900;2023-04-01T10:09:07;11.70;99.90
19037;DHT22;9651;49.138;8.900;2023-04-01T10:22:46;11.80;99.90
19037;DHT22;9651;49.138;8.900;2023-04-01T10:27:10;11.80;99.90
19037;DHT22;9651;49.138;8.900;2023-04-01T10:36:49;11.70;99.90
19037;DHT22;9651;49.138;8.900;2023-04-01T10:41:16;11.80;99.90
19037;DHT22;9651;49.138;8.900;2023-04-01T10:46:17;11.90;99.90
19037;DHT22;9651;49.138;8.900;2023-04-01T10:55:04;11.90;99.90
19037;DHT22;9651;49.138;8.900;2023-04-01T11:23:53;11.60;99.90
19037;DHT22;9651;49.138;8.900;2023-04-01T11:32:46;11.70;99.90
19037;DHT22;9651;49.138;8.900;2023-04-01T11:36:56;11.60;99.90
19037;DHT22;9651;49.138;8.900;2023-04-01T11:41:17;11.60;99.90
19037;DHT22;9651;49.138;8.900;2023-04-01T11:45:57;11.70;99.90
19037;DHT22;9651;49.138;8.900;2023-04-01T11:50:21;11.80;99.90
19037;DHT22;9651;49.138;8.900;2023-04-01T11:54:48;11.80;99.90
19037;DHT22;9651;49.138;8.900;2023-04-01T11:59:17;11.90;99.90
19037;DHT22;9651;49.138;8.900;2023-04-01T12:03:57;11.70;99.90
19037;DHT22;9651;49.138;8.900;2023-04-01T12:08:13;11.70;99.90
19037;DHT22;9651;49.138;8.900;2023-04-01T12:12:24;11.50;99.90
19037;DHT22;9651;49.138;8.900;2023-04-01T12:16:44;11.50;99.90
19037;DHT22;9651;49.138;8.900;2023-04-01T12:20:50;11.80;99.90
19037;DHT22;9651;49.138;8.900;2023-04-01T12:25:01;11.70;99.90
19037;DHT22;9651;49.138;8.900;2023-04-01T12:29:21;11.80;99.90
19037;DHT22;9651;49.138;8.900;2023-04-01T12:33:55;12.00;99.90
19037;DHT22;9651;49.138;8.900;2023-04-01T12:38:14;12.10;99.90
19037;DHT22;9651;49.138;8.900;2023-04-01T12:42:36;12.30;99.90
19037;DHT22;9651;49.138;8.900;2023-04-01T12:46:55;12.50;99.90
19037;DHT22;9651;49.138;8.900;2023-04-01T12:51:11;12.80;99.90
19037;DHT22;9651;49.138;8.900;2023-04-01T12:55:35;12.60;99.90
19037;DHT22;9651;49.138;8.900;2023-04-01T12:59:51;12.60;99.90
19037;DHT22;9651;49.138;8.900;2023-04-01T13:04:25;12.60;99.90
19037;DHT22;9651;49.138;8.900;2023-04-01T13:08:38;12.40;99.90
19037;DHT22;9651;49.138;8.900;2023-04-01T13:13:00;12.30;99.90
19037;DHT22;9651;49.138;8.900;2023-04-01T13:17:13;12.30;99.90
19037;DHT22;9651;49.138;8.900;2023-04-01T13:21:22;12.50;99.90
19037;DHT22;9651;49.138;8.900;2023-04-01T13:25:32;12.60;99.90
19037;DHT22;9651;49.138;8.900;2023-04-01T13:29:41;13.00;99.90
19037;DHT22;9651;49.138;8.900;2023-04-01T13:33:50;13.20;99.90
19037;DHT22;9651;49.138;8.900;2023-04-01T13:38:14;13.00;99.90
19037;DHT22;9651;49.138;8.900;2023-04-01T13:42:24;13.00;99.90
19037;DHT22;9651;49.138;8.900;2023-04-01T13:46:39;12.90;99.90
19037;DHT22;9651;49.138;8.900;2023-04-01T13:51:06;12.60;99.90
19037;DHT22;9651;49.138;8.900;2023-04-01T13:55:23;12.20;99.90
19037;DHT22;9651;49.138;8.900;2023-04-01T13:59:40;12.30;99.90
19037;DHT22;9651;49.138;8.900;2023-04-01T14:04:09;12.20;99.90
19037;DHT22;9651;49.138;8.900;2023-04-01T14:08:26;12.10;99.90
19037;DHT22;9651;49.138;8.900;2023-04-01T14:12:39;12.20;99.90
19037;DHT22;9651;49.138;8.900;2023-04-01T14:16:59;11.80;99.90
19037;DHT22;9651;49.138;8.900;2023-04-01T14:21:17;11.70;99.90
19037;DHT22;9651;49.138;8.900;2023-04-01T14:25:46;11.70;99.90
19037;DHT22;9651;49.138;8.900;2023-04-01T14:29:59;11.80;99.90
19037;DHT22;9651;49.138;8.900;2023-04-01T14:34:20;11.80;99.90
19037;DHT22;9651;49.138;8.900;2023-04-01T14:38:35;12.00;99.90
19037;DHT22;9651;49.138;8.900;2023-04-01T14:43:14;12.10;99.90
19037;DHT22;9651;49.138;8.900;2023-04-01T14:47:38;12.00;99.90
19037;DHT22;9651;49.138;8.900;2023-04-01T14:51:46;11.90;99.90
19037;DHT22;9651;49.138;8.900;2023-04-01T14:55:50;12.00;99.90
19037;DHT22;9651;49.138;8.900;2023-04-01T14:59:59;12.00;99.90
19037;DHT22;9651;49.138;8.900;2023-04-01T15:04:16;12.00;99.90
19037;DHT22;9651;49.138;8.900;2023-04-01T15:08:26;11.90;99.90
19037;DHT22;9651;49.138;8.900;2023-04-01T15:12:32;11.80;99.90
19037;DHT22;9651;49.138;8.900;2023-04-01T15:16:54;11.80;99.90
19037;DHT22;9651;49.138;8.900;2023-04-01T15:21:11;11.80;99.90
19037;DHT22;9651;49.138;8.900;2023-04-01T15:25:30;11.70;99.90
19037;DHT22;9651;49.138;8.900;2023-04-01T15:29:47;12.00;99.90
19037;DHT22;9651;49.138;8.900;2023-04-01T15:34:15;12.00;99.90
19037;DHT22;9651;49.138;8.900;2023-04-01T15:38:29;12.00;99.90
19037;DHT22;9651;49.138;8.900;2023-04-01T15:42:42;12.10;99.90
19037;DHT22;9651;49.138;8.900;2023-04-01T15:46:48;12.00;99.90
19037;DHT22;9651;49.138;8.900;2023-04-01T15:51:12;11.80;99.90
19037;DHT22;9651;49.138;8.900;2023-04-01T15:55:24;11.60;99.90
19037;DHT22;9651;49.138;8.900;2023-04-01T15:59:44;11.60;99.90
19037;DHT22;9651;49.138;8.900;2023-04-01T16:03:54;11.70;99.90
19037;DHT22;9651;49.138;8.900;2023-04-01T16:08:11;11.80;99.90
19037;DHT22;9651;49.138;8.900;2023-04-01T16:12:18;11.70;99.90
19037;DHT22;9651;49.138;8.900;2023-04-01T16:16:37;11.70;99.90
19037;DHT22;9651;49.138;8.900;2023-04-01T16:20:51;11.50;99.90
19037;DHT22;9651;49.138;8.900;2023-04-01T16:25:01;11.60;99.90
19037;DHT22;9651;49.138;8.900;2023-04-01T16:29:11;11.60;99.90
19037;DHT22;9651;49.138;8.900;2023-04-01T16:33:22;11.50;99.90
19037;DHT22;9651;49.138;8.900;2023-04-01T16:37:33;11.40;99.90
19037;DHT22;9651;49.138;8.900;2023-04-01T16:41:47;11.40;99.90
19037;DHT22;9651;49.138;8.900;2023-04-01T16:46:07;11.30;99.90
19037;DHT22;9651;49.138;8.900;2023-04-01T16:50:15;11.30;99.90
19037;DHT22;9651;49.138;8.900;2023-04-01T16:54:28;11.30;99.90
19037;DHT22;9651;49.138;8.900;2023-04-01T16:58:36;11.30;99.90
19037;DHT22;9651;49.138;8.900;2023-04-01T17:02:45;11.20;99.90
19037;DHT22;9651;49.138;8.900;2023-04-01T17:06:53;11.20;99.90
19037;DHT22;9651;49.138;8.900;2023-04-01T17:11:03;11.20;99.90
19037;DHT22;9651;49.138;8.900;2023-04-01T17:15:20;11.20;99.90
19037;DHT22;9651;49.138;8.900;2023-04-01T17:19:38;11.10;99.90
19037;DHT22;9651;49.138;8.900;2023-04-01T17:23:47;11.10;99.90
19037;DHT22;9651;49.138;8.900;2023-04-01T17:27:56;11.10;99.90
19037;DHT22;9651;49.138;8.900;2023-04-01T17:32:07;11.00;99.90
19037;DHT22;9651;49.138;8.900;2023-04-01T17:36:21;10.90;99.90
19037;DHT22;9651;49.138;8.900;2023-04-01T17:40:33;10.80;99.90
19037;DHT22;9651;49.138;8.900;2023-04-01T17:44:46;10.70;99.90
19037;DHT22;9651;49.138;8.900;2023-04-01T17:48:58;10.60;99.90
19037;DHT22;9651;49.138;8.900;2023-04-01T17:53:13;10.50;99.90
19037;DHT22;9651;49.138;8.900;2023-04-01T17:57:34;10.50;99.90
19037;DHT22;9651;49.138;8.900;2023-04-01T18:01:47;10.40;99.90
19037;DHT22;9651;49.138;8.900;2023-04-01T18:06:02;10.30;99.90
19037;DHT22;9651;49.138;8.900;2023-04-01T18:10:16;10.30;99.90
19037;DHT22;9651;49.138;8.900;2023-04-01T18:14:51;10.30;99.90
19037;DHT22;9651;49.138;8.900;2023-04-01T18:19:02;10.20;99.90
19037;DHT22;9651;49.138;8.900;2023-04-01T18:23:14;10.20;99.90
19037;DHT22;9651;49.138;8.900;2023-04-01T18:27:24;10.10;99.90
19037;DHT22;9651;49.138;8.900;2023-04-01T18:31:32;10.10;99.90
19037;DHT22;9651;49.138;8.900;2023-04-01T18:35:47;10.00;99.90
19037;DHT22;9651;49.138;8.900;2023-04-01T18:39:55;10.10;99.90
19037;DHT22;9651;49.138;8.900;2023-04-01T18:44:11;10.00;99.90
19037;DHT22;9651;49.138;8.900;2023-04-01T18:48:41;10.00;99.90
19037;DHT22;9651;49.138;8.900;2023-04-01T18:52:53;10.00;99.90
19037;DHT22;9651;49.138;8.900;2023-04-01T18:57:07;10.00;99.90
19037;DHT22;9651;49.138;8.900;2023-04-01T19:01:19;10.00;99.90
19037;DHT22;9651;49.138;8.900;2023-04-01T19:05:30;9.90;99.90
19037;DHT22;9651;49.138;8.900;2023-04-01T19:09:43;9.90;99.90
19037;DHT22;9651;49.138;8.900;2023-04-01T19:13:52;9.90;99.90
19037;DHT22;9651;49.138;8.900;2023-04-01T19:18:22;9.90;99.90
19037;DHT22;9651;49.138;8.900;2023-04-01T19:22:44;9.90;99.90
19037;DHT22;9651;49.138;8.900;2023-04-01T19:26:58;9.90;99.90
19037;DHT22;9651;49.138;8.900;2023-04-01T19:31:14;9.90;99.90
19037;DHT22;9651;49.138;8.900;2023-04-01T19:35:33;10.00;99.90
19037;DHT22;9651;49.138;8.900;2023-04-01T19:39:48;9.90;99.90
19037;DHT22;9651;49.138;8.900;2023-04-01T19:43:59;9.90;99.90
19037;DHT22;9651;49.138;8.900;2023-04-01T19:48:14;9.90;99.90
19037;DHT22;9651;49.138;8.900;2023-04-01T19:52:23;9.90;99.90
19037;DHT22;9651;49.138;8.900;2023-04-01T19:56:35;9.90;99.90
19037;DHT22;9651;49.138;8.900;2023-04-01T20:00:42;9.90;99.90
19037;DHT22;9651;49.138;8.900;2023-04-01T20:04:49;9.90;99.90
19037;DHT22;9651;49.138;8.900;2023-04-01T20:09:00;9.90;99.90
19037;DHT22;9651;49.138;8.900;2023-04-01T20:13:13;9.90;99.90
19037;DHT22;9651;49.138;8.900;2023-04-01T20:17:20;9.90;99.90
19037;DHT22;9651;49.138;8.900;2023-04-01T20:21:34;9.90;99.90
19037;DHT22;9651;49.138;8.900;2023-04-01T20:25:41;9.90;99.90
19037;DHT22;9651;49.138;8.900;2023-04-01T20:30:12;9.80;99.90
19037;DHT22;9651;49.138;8.900;2023-04-01T20:34:32;9.80;99.90
19037;DHT22;9651;49.138;8.900;2023-04-01T20:39:10;9.80;99.90
19037;DHT22;9651;49.138;8.900;2023-04-01T20:43:29;9.80;99.90
19037;DHT22;9651;49.138;8.900;2023-04-01T20:47:42;9.80;99.90
19037;DHT22;9651;49.138;8.900;2023-04-01T20:51:53;9.80;99.90
19037;DHT22;9651;49.138;8.900;2023-04-01T20:56:11;9.80;99.90
19037;DHT22;9651;49.138;8.900;2023-04-01T21:04:49;9.80;99.90
19037;DHT22;9651;49.138;8.900;2023-04-01T21:09:11;9.70;99.90
19037;DHT22;9651;49.138;8.900;2023-04-01T21:13:25;9.70;99.90
19037;DHT22;9651;49.138;8.900;2023-04-01T21:17:46;9.70;99.90
19037;DHT22;9651;49.138;8.900;2023-04-01T21:22:12;9.70;99.90
19037;DHT22;9651;49.138;8.900;2023-04-01T21:26:30;9.70;99.90
19037;DHT22;9651;49.138;8.900;2023-04-01T21:31:02;9.70;99.90
19037;DHT22;9651;49.138;8.900;2023-04-01T21:35:08;9.70;99.90
19037;DHT22;9651;49.138;8.900;2023-04-01T21:39:32;9.70;99.90
19037;DHT22;9651;49.138;8.900;2023-04-01T21:44:02;9.70;99.90
19037;DHT22;9651;49.138;8.900;2023-04-01T21:48:31;9.70;99.90
19037;DHT22;9651;49.138;8.900;2023-04-01T21:53:05;9.70;99.90
19037;DHT22;9651;49.138;8.900;2023-04-01T21:57:43;9.80;99.90
19037;DHT22;9651;49.138;8.900;2023-04-01T22:02:13;9.70;99.90
19037;DHT22;9651;49.138;8.900;2023-04-01T22:06:28;9.70;99.90
19037;DHT22;9651;49.138;8.900;2023-04-01T22:10:40;9.70;99.90
19037;DHT22;9651;49.138;8.900;2023-04-01T22:14:49;9.70;99.90
19037;DHT22;9651;49.138;8.900;2023-04-01T22:19:02;9.70;99.90
19037;DHT22;9651;49.138;8.900;2023-04-01T22:23:15;9.80;99.90
19037;DHT22;9651;49.138;8.900;2023-04-01T22:27:26;9.80;99.90
19037;DHT22;9651;49.138;8.900;2023-04-01T22:31:35;9.80;99.90
19037;DHT22;9651;49.138;8.900;2023-04-01T22:35:42;9.70;99.90
19037;DHT22;9651;49.138;8.900;2023-04-01T22:40:00;9.70;99.90
19037;DHT22;9651;49.138;8.900;2023-04-01T22:44:19;9.70;99.90
19037;DHT22;9651;49.138;8.900;2023-04-01T22:48:29;9.70;99.90
19037;DHT22;9651;49.138;8.900;2023-04-01T22:52:40;9.60;99.90
19037;DHT22;9651;49.138;8.900;2023-04-01T22:56:49;9.50;99.90
19037;DHT22;9651;49.138;8.900;2023-04-01T23:00:56;9.50;99.90
19037;DHT22;9651;49.138;8.900;2023-04-01T23:05:01;9.50;99.90
19037;DHT22;9651;49.138;8.900;2023-04-01T23:09:14;9.40;99.90
19037;DHT22;9651;49.138;8.900;2023-04-01T23:13:24;9.30;99.90
19037;DHT22;9651;49.138;8.900;2023-04-01T23:17:43;9.40;99.90
19037;DHT22;9651;49.138;8.900;2023-04-01T23:21:51;9.40;99.90
19037;DHT22;9651;49.138;8.900;2023-04-01T23:26:00;9.40;99.90
19037;DHT22;9651;49.138;8.900;2023-04-01T23:34:48;9.40;99.90
19037;DHT22;9651;49.138;8.900;2023-04-01T23:38:51;9.50;99.90
19037;DHT22;9651;49.138;8.900;2023-04-01T23:42:54;9.50;99.90
19037;DHT22;9651;49.138;8.900;2023-04-01T23:46:59;9.50;99.90
19037;DHT22;9651;49.138;8.900;2023-04-01T23:51:03;9.40;99.90
19037;DHT22;9651;49.138;8.900;2023-04-01T23:55:14;9.40;99.90
19037;DHT22;9651;49.138;8.900;2023-04-01T23:59:17;9.40;99.90
